Time;durP1;ratioP1;P1;durP2;ratioP2;P2;SDS_P1;SDS_P2;PMS_P1;PMS_P2;Temp;Humidity;BMP_temperature;BMP_pressure;BME280_temperature;BME280_humidity;BME280_pressure;Samples;Min_cycle;Max_cycle;Signal;HPM_P1;HPM_P2
2021/04/20 00:00:49;;;;;;;26.15;17.17;;;12.50;65.10;;;;;;5114033;27;20406;-74
2021/04/20 00:03:15;;;;;;;22.85;16.88;;;12.50;65.10;;;;;;5113767;28;20541;-74
2021/04/20 00:05:41;;;;;;;21.25;16.10;;;12.50;65.10;;;;;;5124641;27;20034;-74
2021/04/20 00:08:07;;;;;;;27.95;16.80;;;12.50;65.10;;;;;;5140974;27;20079;-74
2021/04/20 00:10:33;;;;;;;22.00;15.45;;;12.40;64.90;;;;;;5154696;27;20031;-74
2021/04/20 00:12:59;;;;;;;25.48;16.65;;;12.40;65.00;;;;;;5124492;27;20384;-74
2021/04/20 00:15:28;;;;;;;28.42;17.45;;;12.40;64.90;;;;;;5121210;27;20019;-74
2021/04/20 00:17:55;;;;;;;23.85;14.80;;;12.40;65.00;;;;;;5133983;27;20019;-75
2021/04/20 00:20:22;;;;;;;21.80;15.35;;;12.40;65.00;;;;;;5132325;27;20022;-74
2021/04/20 00:22:49;;;;;;;23.30;15.98;;;12.40;65.10;;;;;;5121561;27;20051;-74
2021/04/20 00:25:15;;;;;;;26.75;18.27;;;12.40;65.20;;;;;;5112982;28;20015;-74
2021/04/20 00:27:41;;;;;;;24.23;15.40;;;12.40;65.30;;;;;;5126679;27;20414;-73
2021/04/20 00:30:08;;;;;;;19.92;14.05;;;12.40;65.30;;;;;;5133447;27;20089;-74
2021/04/20 00:32:34;;;;;;;21.77;15.85;;;12.40;65.30;;;;;;5123868;27;20024;-74
2021/04/20 00:35:01;;;;;;;22.63;15.05;;;12.40;65.40;;;;;;5132017;27;20027;-73
2021/04/20 00:37:27;;;;;;;20.30;15.43;;;12.40;65.30;;;;;;5133316;27;20077;-74
2021/04/20 00:39:52;;;;;;;21.38;15.18;;;12.40;65.30;;;;;;5133344;27;20488;-75
2021/04/20 00:42:18;;;;;;;18.02;12.55;;;12.40;65.40;;;;;;5124167;27;20038;-73
2021/04/20 00:44:44;;;;;;;20.25;14.35;;;12.40;65.40;;;;;;5112665;28;20097;-74
2021/04/20 00:47:10;;;;;;;18.30;13.85;;;12.40;65.60;;;;;;5112844;28;20031;-74
2021/04/20 00:49:36;;;;;;;19.92;14.00;;;12.40;65.60;;;;;;5112402;28;20076;-74
2021/04/20 00:52:01;;;;;;;28.17;17.05;;;12.50;65.70;;;;;;5112761;28;20122;-74
2021/04/20 00:54:27;;;;;;;18.23;13.68;;;12.50;65.70;;;;;;5129930;27;20430;-73
2021/04/20 00:56:53;;;;;;;26.60;18.63;;;12.50;65.60;;;;;;5130717;27;20110;-74
2021/04/20 00:59:20;;;;;;;22.73;16.30;;;12.50;65.70;;;;;;5120133;27;20515;-73
2021/04/20 01:01:47;;;;;;;20.05;15.43;;;12.50;65.60;;;;;;5130276;27;20096;-73
2021/04/20 01:04:14;;;;;;;23.88;17.05;;;12.50;65.50;;;;;;5112375;28;20023;-73
2021/04/20 01:06:44;;;;;;;22.83;15.23;;;12.50;65.30;;;;;;5113321;27;20027;-73
2021/04/20 01:09:11;;;;;;;24.35;17.70;;;12.50;65.20;;;;;;5124392;27;20051;-73
2021/04/20 01:11:40;;;;;;;22.55;15.77;;;12.50;65.00;;;;;;5120268;28;20115;-73
2021/04/20 01:14:07;;;;;;;25.13;17.50;;;12.50;64.80;;;;;;5132679;27;20068;-74
2021/04/20 01:16:34;;;;;;;31.08;19.23;;;12.50;64.80;;;;;;5137846;27;20490;-73
2021/04/20 01:19:01;;;;;;;26.60;17.88;;;12.50;64.70;;;;;;5153353;27;20467;-72
2021/04/20 01:21:28;;;;;;;27.02;18.23;;;12.50;64.70;;;;;;5150468;27;20031;-73
2021/04/20 01:24:08;;;;;;;22.65;16.27;;;12.50;64.70;;;;;;5118979;28;20019;-73
2021/04/20 01:26:46;;;;;;;25.58;17.63;;;12.50;64.70;;;;;;5132791;27;20424;-74
2021/04/20 01:29:13;;;;;;;20.88;14.77;;;12.50;64.70;;;;;;5131630;27;20027;-73
2021/04/20 01:31:42;;;;;;;27.48;18.02;;;12.50;64.70;;;;;;5127980;27;20482;-73
2021/04/20 01:34:08;;;;;;;20.42;14.68;;;12.50;64.80;;;;;;5112097;28;20350;-73
2021/04/20 01:36:34;;;;;;;21.48;15.93;;;12.50;64.80;;;;;;5123074;27;20042;-73
2021/04/20 01:39:00;;;;;;;25.00;17.10;;;12.50;64.90;;;;;;5112087;28;20027;-73
2021/04/20 01:41:28;;;;;;;24.60;17.55;;;12.40;65.00;;;;;;5110750;28;20481;-73
2021/04/20 01:43:56;;;;;;;27.17;18.95;;;12.40;64.90;;;;;;5132661;27;20023;-74
2021/04/20 01:46:22;;;;;;;26.77;19.15;;;12.40;64.90;;;;;;5132625;27;20414;-73
2021/04/20 01:48:49;;;;;;;24.00;16.45;;;12.40;64.90;;;;;;5132496;27;20099;-73
2021/04/20 01:51:16;;;;;;;30.35;19.17;;;12.40;64.90;;;;;;5131006;28;20496;-73
2021/04/20 01:53:42;;;;;;;28.52;17.67;;;12.40;65.00;;;;;;5130735;27;20096;-73
2021/04/20 01:56:10;;;;;;;24.88;18.10;;;12.40;65.20;;;;;;5130957;28;20028;-73
2021/04/20 01:58:38;;;;;;;26.83;18.90;;;12.30;65.00;;;;;;5115767;27;20028;-73
2021/04/20 02:01:08;;;;;;;24.63;17.13;;;12.40;65.10;;;;;;5112691;28;20015;-73
2021/04/20 02:03:35;;;;;;;28.23;17.75;;;12.40;65.10;;;;;;5128333;27;20484;-73
2021/04/20 02:06:02;;;;;;;22.38;15.90;;;12.40;65.10;;;;;;5124396;27;20084;-73
2021/04/20 02:08:29;;;;;;;23.48;16.77;;;12.40;65.10;;;;;;5135130;27;20031;-73
2021/04/20 02:10:57;;;;;;;26.02;18.40;;;12.40;65.20;;;;;;5136205;27;20056;-72
2021/04/20 02:13:23;;;;;;;26.88;17.52;;;12.40;65.20;;;;;;5135372;27;20028;-72
2021/04/20 02:15:49;;;;;;;26.80;19.30;;;12.30;65.20;;;;;;5135659;27;20035;-73
2021/04/20 02:18:17;;;;;;;27.63;19.63;;;12.30;65.10;;;;;;5135549;27;20019;-73
2021/04/20 02:20:45;;;;;;;30.52;19.98;;;12.30;65.40;;;;;;5135953;27;20106;-74
2021/04/20 02:23:10;;;;;;;27.63;19.50;;;12.30;65.50;;;;;;5122584;27;20025;-74
2021/04/20 02:25:36;;;;;;;28.42;18.60;;;12.30;66.10;;;;;;5115420;27;20027;-73
2021/04/20 02:28:02;;;;;;;27.15;18.98;;;12.20;66.10;;;;;;5141035;27;20050;-74
2021/04/20 02:30:29;;;;;;;25.88;18.45;;;12.20;66.10;;;;;;5155492;27;20102;-73
2021/04/20 02:32:56;;;;;;;28.17;18.42;;;12.20;66.10;;;;;;5124839;27;20038;-74
2021/04/20 02:35:22;;;;;;;24.58;16.98;;;12.20;66.10;;;;;;5130105;27;20023;-74
2021/04/20 02:37:48;;;;;;;26.48;18.30;;;12.20;66.10;;;;;;5135553;27;20046;-74
2021/04/20 02:40:19;;;;;;;22.17;16.25;;;12.20;66.30;;;;;;5135634;27;20023;-73
2021/04/20 02:42:48;;;;;;;23.40;17.20;;;12.20;66.30;;;;;;5125969;27;20073;-74
2021/04/20 02:45:15;;;;;;;27.08;18.50;;;12.20;66.40;;;;;;5129273;27;20038;-74
2021/04/20 02:47:41;;;;;;;25.48;17.25;;;12.10;66.30;;;;;;5136093;27;20025;-74
2021/04/20 02:50:12;;;;;;;31.13;19.83;;;12.10;66.30;;;;;;5136209;27;20102;-75
2021/04/20 02:52:40;;;;;;;21.77;15.50;;;12.10;66.40;;;;;;5129784;27;20059;-75
2021/04/20 02:55:09;;;;;;;28.73;20.23;;;12.20;66.50;;;;;;5136372;27;20533;-74
2021/04/20 02:57:52;;;;;;;28.45;18.98;;;12.10;66.30;;;;;;5137153;27;20024;-76
2021/04/20 03:00:21;;;;;;;24.60;16.70;;;12.20;66.10;;;;;;5156741;27;20023;-76
2021/04/20 03:02:54;;;;;;;24.35;17.50;;;12.20;66.10;;;;;;5139710;27;20467;-74
2021/04/20 03:05:21;;;;;;;25.58;17.30;;;12.20;66.30;;;;;;5134872;27;20027;-75
2021/04/20 03:07:48;;;;;;;27.38;19.25;;;12.20;66.20;;;;;;5134887;27;20023;-75
2021/04/20 03:10:17;;;;;;;28.48;18.63;;;12.20;66.20;;;;;;5136080;27;20020;-75
2021/04/20 03:12:44;;;;;;;31.00;20.65;;;12.10;66.10;;;;;;5125234;27;20023;-75
2021/04/20 03:15:12;;;;;;;27.65;18.13;;;12.10;66.10;;;;;;5135866;27;20019;-75
2021/04/20 03:17:40;;;;;;;26.88;19.85;;;12.10;66.00;;;;;;5136031;27;20023;-75
2021/04/20 03:20:10;;;;;;;32.40;20.73;;;12.10;66.10;;;;;;5135675;27;20037;-76
2021/04/20 03:22:38;;;;;;;25.83;19.40;;;12.10;66.00;;;;;;5125834;27;20024;-75
2021/04/20 03:25:11;;;;;;;29.95;20.75;;;12.10;65.90;;;;;;5115279;28;20468;-75
2021/04/20 03:27:47;;;;;;;32.92;22.63;;;12.10;65.90;;;;;;5130761;27;20031;-74
2021/04/20 03:30:16;;;;;;;25.25;18.02;;;12.00;65.90;;;;;;5135792;27;20027;-75
2021/04/20 03:32:55;;;;;;;30.20;21.55;;;12.00;65.90;;;;;;5126493;27;20023;-75
2021/04/20 03:35:43;;;;;;;29.20;20.38;;;12.00;66.00;;;;;;5134751;27;20050;-75
2021/04/20 03:38:26;;;;;;;28.38;20.02;;;12.00;66.00;;;;;;5135548;27;20027;-75
2021/04/20 03:40:57;;;;;;;28.63;21.08;;;12.00;66.00;;;;;;5135747;27;20019;-75
2021/04/20 03:43:28;;;;;;;27.67;19.30;;;12.00;66.90;;;;;;5119164;27;20381;-74
2021/04/20 03:45:59;;;;;;;27.95;20.83;;;12.00;66.20;;;;;;5114805;28;20049;-74
2021/04/20 03:48:32;;;;;;;39.15;21.98;;;12.10;66.20;;;;;;5123847;27;20055;-74
2021/04/20 03:51:04;;;;;;;32.85;22.85;;;12.00;66.20;;;;;;5135020;27;20206;-75
2021/04/20 03:53:32;;;;;;;30.13;19.77;;;12.00;66.20;;;;;;5124161;27;20031;-75
2021/04/20 03:56:01;;;;;;;32.40;23.17;;;12.10;66.30;;;;;;5133816;27;20092;-73
2021/04/20 03:58:29;;;;;;;32.72;24.48;;;12.10;66.20;;;;;;5135933;27;20019;-74
2021/04/20 04:00:59;;;;;;;31.08;23.02;;;12.10;66.10;;;;;;5134952;27;20019;-74
2021/04/20 04:03:27;;;;;;;28.88;20.42;;;12.00;66.00;;;;;;5124380;27;20027;-74
2021/04/20 04:05:54;;;;;;;25.05;19.42;;;12.00;65.90;;;;;;5134839;27;20027;-74
2021/04/20 04:08:21;;;;;;;33.42;23.88;;;12.00;66.00;;;;;;5134626;27;20023;-73
2021/04/20 04:10:52;;;;;;;29.58;20.55;;;12.00;66.20;;;;;;5118237;27;20023;-74
2021/04/20 04:13:22;;;;;;;27.17;19.65;;;12.00;66.20;;;;;;5114341;27;20107;-74
2021/04/20 04:15:51;;;;;;;27.83;20.45;;;12.00;66.30;;;;;;5113948;28;20019;-74
2021/04/20 04:18:21;;;;;;;33.80;24.27;;;12.10;66.30;;;;;;5114051;28;20054;-73
2021/04/20 04:20:49;;;;;;;30.52;21.40;;;12.10;66.40;;;;;;5147320;27;20109;-73
2021/04/20 04:23:23;;;;;;;27.70;20.25;;;12.10;66.40;;;;;;5154660;27;20102;-73
2021/04/20 04:26:06;;;;;;;;;;;12.10;66.50;;;;;;5155622;27;20019;-73
2021/04/20 04:28:33;;;;;;;27.65;20.23;;;12.20;66.30;;;;;;5154958;27;19956;-73
2021/04/20 04:31:03;;;;;;;26.05;18.63;;;12.30;67.20;;;;;;5155071;27;20071;-73
2021/04/20 04:33:32;;;;;;;26.92;19.15;;;12.30;66.60;;;;;;5143677;27;20023;-73
2021/04/20 04:35:58;;;;;;;28.55;20.58;;;12.30;66.60;;;;;;5134044;27;20031;-73
2021/04/20 04:38:24;;;;;;;25.10;17.67;;;12.30;66.40;;;;;;5134261;27;20061;-73
2021/04/20 04:40:50;;;;;;;26.08;17.90;;;12.30;66.20;;;;;;5134223;27;20029;-73
2021/04/20 04:43:17;;;;;;;23.52;17.02;;;12.40;67.00;;;;;;5134108;27;20101;-73
2021/04/20 04:45:43;;;;;;;26.60;18.45;;;12.40;66.30;;;;;;5134247;27;20023;-73
2021/04/20 04:48:10;;;;;;;24.95;17.95;;;12.40;66.40;;;;;;5134170;27;20027;-73
2021/04/20 04:50:40;;;;;;;30.92;19.80;;;12.40;66.30;;;;;;5133494;27;20493;-73
2021/04/20 04:53:07;;;;;;;30.95;21.35;;;12.50;66.50;;;;;;5132689;27;20026;-73
2021/04/20 04:55:33;;;;;;;26.55;19.70;;;12.50;66.40;;;;;;5134422;27;20016;-73
2021/04/20 04:57:59;;;;;;;26.85;20.70;;;12.60;66.50;;;;;;5134162;27;20030;-73
2021/04/20 05:00:26;;;;;;;28.95;21.05;;;12.60;66.40;;;;;;5134036;27;20026;-74
2021/04/20 05:02:53;;;;;;;36.50;26.42;;;12.60;66.30;;;;;;5133541;27;20026;-73
2021/04/20 05:05:20;;;;;;;30.55;21.70;;;12.70;66.10;;;;;;5133881;27;20019;-73
2021/04/20 05:07:46;;;;;;;34.47;21.30;;;12.70;65.80;;;;;;5132640;28;20034;-73
2021/04/20 05:10:13;;;;;;;31.98;22.63;;;12.70;65.90;;;;;;5133880;27;20102;-74
2021/04/20 05:12:40;;;;;;;30.38;21.95;;;12.80;65.60;;;;;;5152545;27;20426;-73
2021/04/20 05:15:15;;;;;;;31.83;21.70;;;12.80;65.50;;;;;;5153219;27;20392;-74
2021/04/20 05:17:42;;;;;;;30.45;21.30;;;12.80;65.30;;;;;;5152667;27;20018;-73
2021/04/20 05:20:11;;;;;;;29.90;21.23;;;12.80;65.30;;;;;;5154304;27;20501;-73
2021/04/20 05:22:37;;;;;;;27.05;19.00;;;12.80;65.30;;;;;;5154418;27;20042;-72
2021/04/20 05:25:12;;;;;;;29.17;20.50;;;12.90;65.50;;;;;;5153909;27;20468;-74
2021/04/20 05:27:38;;;;;;;31.63;21.52;;;12.90;65.40;;;;;;5135220;27;20496;-73
2021/04/20 05:30:06;;;;;;;32.67;21.27;;;12.90;65.20;;;;;;5132654;27;20046;-73
2021/04/20 05:32:40;;;;;;;29.45;20.30;;;12.90;65.10;;;;;;5132084;27;20472;-73
2021/04/20 05:35:10;;;;;;;34.58;23.15;;;12.90;65.00;;;;;;5133804;27;20023;-73
2021/04/20 05:37:38;;;;;;;33.90;22.77;;;13.00;65.10;;;;;;5137381;27;20027;-73
2021/04/20 05:40:11;;;;;;;41.53;27.77;;;13.00;65.00;;;;;;5137324;27;20023;-72
2021/04/20 05:42:37;;;;;;;35.13;24.75;;;13.10;65.80;;;;;;5137353;27;20116;-73
2021/04/20 05:45:08;;;;;;;39.92;26.55;;;13.10;64.70;;;;;;5137236;27;20018;-73
2021/04/20 05:47:37;;;;;;;37.30;25.33;;;13.10;64.50;;;;;;5138425;27;20023;-73
2021/04/20 05:50:06;;;;;;;32.90;24.33;;;13.10;64.70;;;;;;5156434;27;20246;-73
2021/04/20 05:52:36;;;;;;;28.48;20.42;;;13.10;64.70;;;;;;5157927;27;20042;-73
2021/04/20 05:55:04;;;;;;;29.77;21.15;;;13.20;65.00;;;;;;5158037;27;20090;-73
2021/04/20 05:57:30;;;;;;;30.70;21.35;;;13.30;65.20;;;;;;5154762;27;20457;-73
2021/04/20 05:59:57;;;;;;;39.53;24.95;;;13.30;65.20;;;;;;5158113;27;20030;-73
2021/04/20 06:02:30;;;;;;;30.60;22.02;;;13.40;64.60;;;;;;5157938;27;20380;-73
2021/04/20 06:05:00;;;;;;;33.38;22.60;;;13.50;64.50;;;;;;5137042;27;20476;-72
2021/04/20 06:07:26;;;;;;;33.13;22.25;;;13.50;64.30;;;;;;5137690;27;20132;-72
2021/04/20 06:09:53;;;;;;;44.20;24.90;;;13.60;64.30;;;;;;5137060;27;20023;-73
2021/04/20 06:12:18;;;;;;;29.90;22.00;;;13.70;63.50;;;;;;5135715;27;20031;-73
2021/04/20 06:14:48;;;;;;;31.25;21.63;;;13.70;63.40;;;;;;5135469;27;20075;-73
2021/04/20 06:17:17;;;;;;;31.77;21.27;;;13.70;63.10;;;;;;5136583;27;20491;-73
2021/04/20 06:19:43;;;;;;;34.90;23.95;;;13.80;63.20;;;;;;5136903;27;20049;-73
2021/04/20 06:22:16;;;;;;;29.65;21.83;;;13.80;62.70;;;;;;5135327;27;20019;-74
2021/04/20 06:24:43;;;;;;;32.80;24.13;;;13.80;62.70;;;;;;5157158;27;20407;-73
2021/04/20 06:27:09;;;;;;;36.38;24.48;;;13.80;62.40;;;;;;5157265;27;20053;-72
2021/04/20 06:29:39;;;;;;;35.30;24.83;;;13.80;61.90;;;;;;5157198;27;20019;-73
2021/04/20 06:32:05;;;;;;;34.65;23.77;;;13.80;61.10;;;;;;5157429;27;20172;-72
2021/04/20 06:34:32;;;;;;;35.65;23.73;;;13.70;61.20;;;;;;5139800;27;20392;-72
2021/04/20 06:36:59;;;;;;;35.88;23.50;;;13.70;61.30;;;;;;5136358;27;20026;-73
2021/04/20 06:39:25;;;;;;;36.13;24.55;;;13.60;61.20;;;;;;5135132;27;20027;-73
2021/04/20 06:41:53;;;;;;;35.80;25.02;;;13.50;61.00;;;;;;5136136;27;20373;-72
2021/04/20 06:44:46;;;;;;;35.80;23.83;;;13.40;61.00;;;;;;5135589;27;20399;-72
2021/04/20 06:47:14;;;;;;;33.42;22.98;;;13.30;61.10;;;;;;5110323;28;20404;-72
2021/04/20 06:49:51;;;;;;;37.67;23.20;;;13.30;62.00;;;;;;5115759;28;20092;-73
2021/04/20 06:52:32;;;;;;;32.20;23.08;;;13.20;61.90;;;;;;5115612;28;20542;-72
2021/04/20 06:55:21;;;;;;;32.67;23.52;;;13.20;62.00;;;;;;5115819;28;20034;-72
2021/04/20 06:58:07;;;;;;;36.00;24.33;;;13.20;62.10;;;;;;5115648;28;20024;-73
2021/04/20 07:00:45;;;;;;;36.13;23.98;;;13.20;62.20;;;;;;5122613;27;20019;-74
2021/04/20 07:03:32;;;;;;;35.95;23.92;;;13.10;62.20;;;;;;5145195;27;20497;-72
2021/04/20 07:06:35;;;;;;;34.00;23.52;;;13.10;61.90;;;;;;5124697;27;20024;-72
2021/04/20 07:09:02;;;;;;;35.75;23.13;;;13.10;62.10;;;;;;5135758;27;20117;-72
2021/04/20 07:11:33;;;;;;;37.88;23.13;;;13.10;62.00;;;;;;5135973;27;20031;-73
2021/04/20 07:14:03;;;;;;;33.88;23.15;;;13.10;62.10;;;;;;5134651;27;20031;-72
2021/04/20 07:16:29;;;;;;;34.80;23.63;;;13.10;62.00;;;;;;5135649;27;20023;-72
2021/04/20 07:19:13;;;;;;;33.65;22.92;;;13.10;62.00;;;;;;5137185;27;20034;-72
2021/04/20 07:21:57;;;;;;;36.70;22.83;;;13.10;61.90;;;;;;5135833;27;20357;-72
2021/04/20 07:24:42;;;;;;;;;;;13.10;62.00;;;;;;5136164;27;20031;-71
2021/04/20 07:27:13;;;;;;;35.35;24.10;;;13.20;62.30;;;;;;5135705;27;20317;-72
2021/04/20 07:30:08;;;;;;;33.80;23.60;;;13.20;61.70;;;;;;5135490;27;20473;-71
2021/04/20 07:32:54;;;;;;;33.92;23.38;;;13.20;61.70;;;;;;5135660;27;20098;-72
2021/04/20 07:35:43;;;;;;;37.40;23.33;;;13.30;61.70;;;;;;5113713;28;20031;-72
2021/04/20 07:38:29;;;;;;;35.20;24.77;;;13.30;61.70;;;;;;5114908;28;20042;-72
2021/04/20 07:41:32;;;;;;;33.40;22.02;;;13.40;61.70;;;;;;5113349;28;20123;-73
2021/04/20 07:44:16;;;;;;;33.03;21.70;;;13.40;61.60;;;;;;5134742;27;20090;-72
2021/04/20 07:46:55;;;;;;;;;;;13.50;61.70;;;;;;5156476;27;20444;-72
2021/04/20 07:49:47;;;;;;;32.97;20.92;;;13.70;62.30;;;;;;5156065;27;19907;-71
2021/04/20 07:52:19;;;;;;;39.78;23.55;;;13.90;61.50;;;;;;5155633;27;20073;-72
2021/04/20 07:55:07;;;;;;;35.83;23.63;;;13.90;60.30;;;;;;5155764;27;20022;-72
2021/04/20 07:57:53;;;;;;;35.03;21.77;;;14.00;60.00;;;;;;5132057;27;20118;-72
2021/04/20 08:00:23;;;;;;;32.20;21.77;;;14.10;59.80;;;;;;5134149;27;20480;-74
2021/04/20 08:03:13;;;;;;;30.70;21.52;;;14.10;59.50;;;;;;5135055;27;20057;-72
2021/04/20 08:05:46;;;;;;;29.98;20.92;;;14.20;59.20;;;;;;5134702;27;20015;-72
2021/04/20 08:08:14;;;;;;;34.33;23.67;;;14.20;59.40;;;;;;5134666;27;20381;-72
2021/04/20 08:11:03;;;;;;;30.10;21.00;;;14.30;59.20;;;;;;5133497;27;20022;-71
2021/04/20 08:13:57;;;;;;;29.02;19.38;;;14.40;59.30;;;;;;5134748;27;20028;-71
2021/04/20 08:17:07;;;;;;;35.42;22.55;;;14.50;59.50;;;;;;5134625;27;20027;-71
2021/04/20 08:19:36;;;;;;;34.35;21.17;;;14.60;59.30;;;;;;5091498;28;20435;-70
2021/04/20 08:22:04;;;;;;;32.58;21.88;;;14.80;58.80;;;;;;5091321;28;20036;-72
2021/04/20 08:24:44;;;;;;;30.88;19.67;;;14.90;58.10;;;;;;5090922;28;20531;-72
2021/04/20 08:27:16;;;;;;;34.78;21.67;;;15.00;57.70;;;;;;5074049;28;20063;-71
2021/04/20 08:29:46;;;;;;;28.83;18.55;;;15.10;57.40;;;;;;5091986;28;20115;-71
2021/04/20 08:32:20;;;;;;;25.98;18.73;;;15.20;57.50;;;;;;5102169;28;20081;-71
2021/04/20 08:35:13;;;;;;;27.88;20.02;;;15.40;57.10;;;;;;5091065;28;20048;-71
2021/04/20 08:38:13;;;;;;;30.63;21.70;;;15.60;57.20;;;;;;5074175;28;20035;-71
2021/04/20 08:40:50;;;;;;;31.10;18.90;;;15.70;56.00;;;;;;5091179;28;20028;-73
2021/04/20 08:43:34;;;;;;;31.85;19.10;;;15.80;56.00;;;;;;5091168;28;20115;-71
2021/04/20 08:46:29;;;;;;;29.98;21.00;;;16.00;55.50;;;;;;5090932;28;20024;-71
2021/04/20 08:49:17;;;;;;;26.35;18.83;;;16.10;54.60;;;;;;5080119;28;20029;-71
2021/04/20 08:55:20;;;;;;;25.50;17.67;;;16.30;53.90;;;;;;5126545;27;20034;-72
2021/04/20 08:58:04;;;;;;;25.08;18.48;;;16.40;54.20;;;;;;5131237;27;20050;-70
2021/04/20 09:00:58;;;;;;;29.45;19.70;;;16.40;53.80;;;;;;5127468;27;20499;-71
2021/04/20 09:03:41;;;;;;;41.33;21.83;;;16.40;53.80;;;;;;5132159;27;20413;-71
2021/04/20 09:06:36;;;;;;;30.17;20.38;;;16.40;53.50;;;;;;5133642;27;20780;-71
2021/04/20 09:09:05;;;;;;;;;;;16.40;52.80;;;;;;5123206;28;20088;-72
2021/04/20 09:11:38;;;;;;;26.85;19.85;;;16.40;54.60;;;;;;5138400;27;20218;-72
2021/04/20 09:14:13;;;;;;;27.52;19.35;;;16.40;52.90;;;;;;5133026;27;20114;-71
2021/04/20 09:16:50;;;;;;;28.20;19.08;;;16.40;53.00;;;;;;5133449;27;20055;-72
2021/04/20 09:19:45;;;;;;;26.00;18.40;;;16.40;53.20;;;;;;5133137;27;20403;-72
2021/04/20 09:22:37;;;;;;;28.70;18.55;;;16.50;53.40;;;;;;5133574;27;20018;-71
2021/04/20 09:25:05;;;;;;;22.77;16.58;;;16.70;53.20;;;;;;5131632;27;20115;-71
2021/04/20 09:28:01;;;;;;;24.73;18.25;;;16.80;53.50;;;;;;5131476;28;20493;-71
2021/04/20 09:30:33;;;;;;;33.20;19.98;;;17.00;53.30;;;;;;5115426;27;20481;-71
2021/04/20 09:33:06;;;;;;;21.52;16.20;;;17.10;51.90;;;;;;5128864;27;20023;-71
2021/04/20 09:35:33;;;;;;;24.35;17.83;;;17.20;52.10;;;;;;5152465;27;20026;-71
2021/04/20 09:38:01;;;;;;;26.75;16.92;;;17.40;51.90;;;;;;5132271;27;20034;-71
2021/04/20 09:40:27;;;;;;;22.58;17.08;;;17.50;51.40;;;;;;5130273;27;20050;-71
2021/04/20 09:43:09;;;;;;;27.02;17.27;;;17.60;51.10;;;;;;5116793;28;20066;-71
2021/04/20 09:45:39;;;;;;;26.17;18.55;;;17.60;50.80;;;;;;5124737;27;20023;-70
2021/04/20 09:48:17;;;;;;;24.83;17.85;;;17.70;50.40;;;;;;5134745;27;20039;-71
2021/04/20 09:51:04;;;;;;;23.85;16.60;;;17.80;50.50;;;;;;5132819;27;20047;-71
2021/04/20 09:54:00;;;;;;;23.17;16.88;;;17.90;50.30;;;;;;5125764;28;20028;-71
2021/04/20 09:56:35;;;;;;;25.55;18.42;;;18.00;50.50;;;;;;5140505;27;20023;-72
2021/04/20 09:59:15;;;;;;;24.27;16.33;;;18.10;49.30;;;;;;5112709;28;20473;-70
2021/04/20 10:01:52;;;;;;;24.08;15.63;;;18.10;49.10;;;;;;5133467;27;20019;-71
2021/04/20 10:04:40;;;;;;;25.20;17.42;;;18.10;49.60;;;;;;5125479;27;20380;-71
2021/04/20 10:07:32;;;;;;;24.88;17.95;;;18.10;50.70;;;;;;5130657;27;20138;-73
2021/04/20 10:10:34;;;;;;;29.08;18.70;;;18.00;52.90;;;;;;5130962;27;20042;-72
2021/04/20 10:13:28;;;;;;;30.70;21.33;;;17.80;51.10;;;;;;5122051;27;20357;-72
2021/04/20 10:16:09;;;;;;;30.05;19.00;;;17.50;52.80;;;;;;5131186;28;20027;-72
2021/04/20 10:19:03;;;;;;;25.45;18.55;;;17.20;52.90;;;;;;5119227;28;20035;-71
2021/04/20 10:22:12;;;;;;;29.50;19.77;;;17.00;53.90;;;;;;5132519;27;20020;-74
2021/04/20 10:24:55;;;;;;;28.35;18.67;;;16.90;54.90;;;;;;5130890;27;20023;-74
2021/04/20 10:27:24;;;;;;;23.75;18.00;;;16.90;55.10;;;;;;5129163;27;20027;-75
2021/04/20 10:29:52;;;;;;;25.10;18.73;;;17.00;56.20;;;;;;5126103;27;20028;-75
2021/04/20 10:32:53;;;;;;;27.60;19.30;;;17.20;55.50;;;;;;5115854;27;20115;-75
2021/04/20 10:35:21;;;;;;;25.85;18.23;;;17.30;54.80;;;;;;5114433;28;20111;-74
2021/04/20 10:37:53;;;;;;;25.88;17.45;;;17.50;54.10;;;;;;5120365;27;20127;-75
2021/04/20 10:40:23;;;;;;;23.73;17.33;;;17.70;53.60;;;;;;5136130;27;20038;-74
2021/04/20 10:42:50;;;;;;;24.63;16.98;;;17.90;53.30;;;;;;5136168;27;20425;-73
2021/04/20 10:45:22;;;;;;;28.05;18.40;;;18.00;52.90;;;;;;5136111;27;20022;-74
2021/04/20 10:47:51;;;;;;;24.80;16.70;;;18.10;51.30;;;;;;5136158;27;20102;-73
2021/04/20 10:50:21;;;;;;;23.80;16.27;;;18.10;51.40;;;;;;5134161;27;20023;-74
2021/04/20 10:52:56;;;;;;;25.08;16.23;;;18.20;50.30;;;;;;5133855;27;20496;-73
2021/04/20 10:55:28;;;;;;;24.25;16.48;;;18.20;50.20;;;;;;5135896;27;20024;-73
2021/04/20 10:57:56;;;;;;;22.70;17.25;;;18.20;49.40;;;;;;5135573;27;20030;-73
2021/04/20 11:00:23;;;;;;;26.55;18.55;;;18.20;49.30;;;;;;5135595;27;20094;-74
2021/04/20 11:02:52;;;;;;;26.20;18.63;;;18.20;49.30;;;;;;5135465;27;20098;-73
2021/04/20 11:05:23;;;;;;;26.77;19.38;;;18.20;49.30;;;;;;5134370;27;20050;-74
2021/04/20 11:07:50;;;;;;;30.45;20.85;;;18.20;49.00;;;;;;5135398;27;20023;-73
2021/04/20 11:10:18;;;;;;;24.45;18.65;;;18.30;49.40;;;;;;5135589;27;20072;-74
2021/04/20 11:12:46;;;;;;;28.25;20.52;;;18.50;49.10;;;;;;5135712;27;20024;-73
2021/04/20 11:15:23;;;;;;;26.60;19.17;;;18.70;48.20;;;;;;5135428;27;20484;-74
2021/04/20 11:17:55;;;;;;;28.95;19.45;;;18.80;48.30;;;;;;5135265;27;20023;-73
2021/04/20 11:20:33;;;;;;;26.45;19.23;;;18.90;47.60;;;;;;5135512;27;20019;-74
2021/04/20 11:23:16;;;;;;;26.70;18.77;;;19.00;47.00;;;;;;5134160;27;20019;-73
2021/04/20 11:25:53;;;;;;;23.35;18.88;;;19.10;46.50;;;;;;5135375;27;20047;-73
2021/04/20 11:28:21;;;;;;;24.05;18.23;;;19.10;46.40;;;;;;5135277;27;20023;-73
2021/04/20 11:31:03;;;;;;;24.65;17.33;;;19.20;47.30;;;;;;5135299;27;20376;-74
2021/04/20 11:33:55;;;;;;;26.13;18.65;;;19.20;47.70;;;;;;5134724;27;20464;-74
2021/04/20 11:36:28;;;;;;;24.55;16.35;;;19.20;47.10;;;;;;5133588;27;20560;-74
2021/04/20 11:39:00;;;;;;;24.55;17.85;;;19.20;46.30;;;;;;5134612;27;20023;-74
2021/04/20 11:41:55;;;;;;;26.48;16.70;;;19.20;45.50;;;;;;5134979;27;20011;-73
2021/04/20 11:44:22;;;;;;;27.35;18.35;;;19.20;46.40;;;;;;5134967;27;20026;-74
2021/04/20 11:46:50;;;;;;;25.50;19.02;;;19.20;45.30;;;;;;5134974;27;20506;-74
2021/04/20 11:49:29;;;;;;;29.35;19.02;;;19.30;45.60;;;;;;5134799;27;20013;-74
2021/04/20 11:51:57;;;;;;;22.98;15.35;;;19.20;44.90;;;;;;5134646;27;20100;-74
2021/04/20 11:54:26;;;;;;;20.08;13.98;;;19.20;45.40;;;;;;5133472;27;20043;-74
2021/04/20 11:56:59;;;;;;;19.50;14.18;;;19.20;46.40;;;;;;5134696;27;20063;-75
2021/04/20 11:59:27;;;;;;;17.40;12.63;;;18.90;50.80;;;;;;5133201;27;20370;-75
2021/04/20 12:01:54;;;;;;;13.32;10.43;;;18.60;51.30;;;;;;5134667;27;20057;-75
2021/04/20 12:04:29;;;;;;;11.50;8.50;;;18.30;52.30;;;;;;5134402;27;20023;-75
2021/04/20 12:06:57;;;;;;;10.48;7.45;;;18.10;53.50;;;;;;5134342;27;20450;-75
2021/04/20 12:09:31;;;;;;;9.93;6.65;;;17.90;52.00;;;;;;5134085;27;20027;-77
2021/04/20 12:11:57;;;;;;;8.55;5.07;;;17.70;52.20;;;;;;5133100;27;20023;-77
2021/04/20 12:14:28;;;;;;;7.03;4.68;;;17.60;52.00;;;;;;5133059;27;20404;-79
2021/04/20 12:16:56;;;;;;;5.80;3.85;;;17.60;50.30;;;;;;5133005;27;20023;-78
2021/04/20 12:19:27;;;;;;;6.00;3.38;;;17.50;50.30;;;;;;5134241;27;20404;-77
2021/04/20 12:21:55;;;;;;;8.07;4.18;;;17.40;50.00;;;;;;5134317;27;20011;-78
2021/04/20 12:24:23;;;;;;;5.50;4.13;;;17.40;50.70;;;;;;5134194;27;20122;-77
2021/04/20 12:26:55;;;;;;;4.80;3.50;;;17.40;50.40;;;;;;5134270;27;20064;-78
2021/04/20 12:29:26;;;;;;;5.10;3.47;;;17.30;49.50;;;;;;5134187;27;20385;-76
2021/04/20 12:31:52;;;;;;;4.72;3.38;;;17.40;49.70;;;;;;5134256;27;20098;-77
2021/04/20 12:34:28;;;;;;;9.70;3.80;;;17.50;50.40;;;;;;5132745;27;20077;-77
2021/04/20 12:37:04;;;;;;;5.40;3.22;;;17.50;49.50;;;;;;5132934;27;20087;-77
2021/04/20 12:39:53;;;;;;;8.45;3.30;;;17.50;48.70;;;;;;5133885;27;20030;-77
2021/04/20 12:42:19;;;;;;;9.80;3.75;;;17.50;49.30;;;;;;5134013;27;20045;-77
2021/04/20 12:44:52;;;;;;;5.78;2.80;;;17.40;48.20;;;;;;5132028;27;20105;-78
2021/04/20 12:47:18;;;;;;;13.32;3.47;;;17.30;48.60;;;;;;5132655;27;20033;-77
2021/04/20 12:49:48;;;;;;;14.75;3.35;;;17.20;47.80;;;;;;5133863;27;20019;-78
2021/04/20 12:52:18;;;;;;;4.20;2.55;;;17.00;47.40;;;;;;5133673;27;20154;-77
2021/04/20 12:54:50;;;;;;;4.78;2.83;;;16.90;47.50;;;;;;5132487;27;20023;-77
2021/04/20 12:57:19;;;;;;;8.70;2.38;;;16.80;47.70;;;;;;5132407;27;20023;-77
2021/04/20 12:59:55;;;;;;;9.27;2.17;;;16.80;48.00;;;;;;5134098;27;20047;-78
2021/04/20 13:02:22;;;;;;;3.78;2.30;;;16.70;49.40;;;;;;5133623;27;20090;-77